createdAt,value
2022-11-14T00:00:11.109Z,3.66
2022-11-14T00:01:11.161Z,3.63
2022-11-14T00:02:11.150Z,3.69
2022-11-14T00:03:11.118Z,3.66
2022-11-14T00:04:11.161Z,3.63
2022-11-14T00:05:11.086Z,3.69
2022-11-14T00:06:11.054Z,3.77
2022-11-14T00:07:11.127Z,3.76
2022-11-14T00:08:11.040Z,3.77
2022-11-14T00:09:11.030Z,3.70
2022-11-14T00:10:11.058Z,3.73
2022-11-14T00:11:11.042Z,3.63
2022-11-14T00:12:11.025Z,3.66
2022-11-14T00:13:11.005Z,3.74
2022-11-14T00:14:11.033Z,3.68
2022-11-14T00:15:10.977Z,3.74
2022-11-14T00:16:10.983Z,3.63
2022-11-14T00:17:11.069Z,3.70
2022-11-14T00:18:10.991Z,3.74
2022-11-14T00:19:11.873Z,3.73
2022-11-14T00:20:10.956Z,3.73
2022-11-14T00:21:10.947Z,3.77
2022-11-14T00:22:10.935Z,3.69
2022-11-14T00:23:10.919Z,3.66
2022-11-14T00:24:10.925Z,3.69
2022-11-14T00:25:10.920Z,3.66
2022-11-14T00:26:11.969Z,3.66
2022-11-14T00:27:10.879Z,3.62
2022-11-14T00:28:10.912Z,3.66
2022-11-14T00:29:10.872Z,3.62
2022-11-14T00:30:10.873Z,3.62
2022-11-14T00:31:10.853Z,3.65
2022-11-14T00:32:10.888Z,3.68
2022-11-14T00:33:13.651Z,3.68
2022-11-14T00:34:11.849Z,3.66
2022-11-14T00:35:10.839Z,3.58
2022-11-14T00:36:10.822Z,3.60
2022-11-14T00:37:10.837Z,3.80
2022-11-14T00:38:10.794Z,3.68
2022-11-14T00:39:10.796Z,3.62
2022-11-14T00:40:10.799Z,3.60
2022-11-14T00:41:10.783Z,3.58
2022-11-14T00:42:10.774Z,3.56
2022-11-14T00:43:10.777Z,3.50
2022-11-14T00:44:10.775Z,3.66
2022-11-14T00:45:10.849Z,3.58
2022-11-14T00:46:10.771Z,3.66
2022-11-14T00:47:10.752Z,3.60
2022-11-14T00:48:10.724Z,3.69
2022-11-14T00:49:10.854Z,3.65
2022-11-14T00:50:10.708Z,3.74
2022-11-14T00:51:10.704Z,3.70
2022-11-14T00:52:10.714Z,3.68
2022-11-14T00:53:10.691Z,3.63
2022-11-14T00:54:10.687Z,3.65
2022-11-14T00:55:10.690Z,3.69
2022-11-14T00:56:10.658Z,3.69
2022-11-14T00:57:10.720Z,3.74
2022-11-14T00:58:10.685Z,3.69
2022-11-14T00:59:10.673Z,3.70
2022-11-14T01:00:10.735Z,3.70
2022-11-14T01:01:10.673Z,3.70
2022-11-14T01:02:10.595Z,3.74
2022-11-14T01:03:10.645Z,3.69
2022-11-14T01:04:10.613Z,3.70
2022-11-14T01:05:10.724Z,3.70
2022-11-14T01:06:10.581Z,3.69
2022-11-14T01:07:10.573Z,3.68
2022-11-14T01:08:10.596Z,3.63
2022-11-14T01:09:10.770Z,3.58
2022-11-14T01:10:10.566Z,3.68
2022-11-14T01:11:10.591Z,3.59
2022-11-14T01:12:10.557Z,3.62
2022-11-14T01:13:10.549Z,3.66
2022-11-14T01:14:10.525Z,3.66
2022-11-14T01:15:10.521Z,3.51
2022-11-14T01:16:10.531Z,3.59
2022-11-14T01:17:10.510Z,3.51
2022-11-14T01:18:10.495Z,3.56
2022-11-14T01:19:10.488Z,3.55
2022-11-14T01:20:10.486Z,3.48
2022-11-14T01:21:10.596Z,3.60
2022-11-14T01:22:10.479Z,3.53
2022-11-14T01:23:10.498Z,3.47
2022-11-14T01:24:10.514Z,3.56
2022-11-14T01:25:10.458Z,3.51
2022-11-14T01:26:10.434Z,3.51
2022-11-14T01:27:10.505Z,3.59
2022-11-14T01:28:10.430Z,3.53
2022-11-14T01:29:10.482Z,3.45
2022-11-14T01:30:10.413Z,3.48
2022-11-14T01:31:10.457Z,3.45
2022-11-14T01:32:10.386Z,3.51
2022-11-14T01:33:10.402Z,3.58
2022-11-14T01:34:10.364Z,3.51
2022-11-14T01:35:10.363Z,3.42
2022-11-14T01:36:10.391Z,3.53
2022-11-14T01:37:10.448Z,3.53
2022-11-14T01:38:10.370Z,3.45
2022-11-14T01:39:10.351Z,3.50
2022-11-14T01:40:10.337Z,3.50
2022-11-14T01:41:10.323Z,3.53
2022-11-14T01:42:10.360Z,3.47
2022-11-14T01:43:10.446Z,3.50
2022-11-14T01:44:10.332Z,3.50
2022-11-14T02:01:08.944Z,3.31
2022-11-14T02:01:57.245Z,3.22
2022-11-14T02:02:56.982Z,3.31
2022-11-14T02:03:56.950Z,3.34
2022-11-14T02:04:56.987Z,3.34
2022-11-14T02:05:56.981Z,3.31
2022-11-14T02:06:56.949Z,3.37
2022-11-14T02:07:56.970Z,3.36
2022-11-14T02:08:56.934Z,3.37
2022-11-14T02:09:56.920Z,3.28
2022-11-14T02:10:56.986Z,3.28
2022-11-14T02:12:28.761Z,3.31
2022-11-14T02:12:56.836Z,3.40
2022-11-14T02:13:56.831Z,3.32
2022-11-14T02:15:28.737Z,3.37
2022-11-14T02:15:56.800Z,3.25
2022-11-14T02:17:22.660Z,3.28
2022-11-14T02:17:58.784Z,3.21
2022-11-14T02:18:56.813Z,3.21
2022-11-14T02:20:00.805Z,3.31
2022-11-14T02:20:57.770Z,3.22
2022-11-14T02:21:56.780Z,3.31
2022-11-14T02:22:56.760Z,3.25
2022-11-14T02:23:56.753Z,3.32
2022-11-14T02:24:56.734Z,3.28
2022-11-14T02:25:56.750Z,3.18
2022-11-14T02:26:56.744Z,3.23
2022-11-14T02:27:56.715Z,3.21
2022-11-14T02:28:56.760Z,3.21
2022-11-14T02:29:56.704Z,3.25
2022-11-14T02:30:57.705Z,3.26
2022-11-14T02:31:56.692Z,3.19
2022-11-14T02:33:10.417Z,3.19
2022-11-14T02:33:59.413Z,3.19
2022-11-14T02:34:56.671Z,3.25
2022-11-14T02:35:56.725Z,3.18
2022-11-14T02:36:56.664Z,3.08
2022-11-14T02:37:56.631Z,3.10
2022-11-14T02:38:56.625Z,3.21
2022-11-14T02:39:56.613Z,3.11
2022-11-14T02:40:56.655Z,3.19
2022-11-14T02:41:56.647Z,3.05
2022-11-14T02:42:56.594Z,3.04
2022-11-14T02:43:56.584Z,3.04
2022-11-14T02:44:56.609Z,3.01
2022-11-14T02:45:59.179Z,3.08
2022-11-14T02:46:57.589Z,3.07
2022-11-14T02:47:56.584Z,2.95
2022-11-14T02:48:56.680Z,3.00
2022-11-14T02:49:56.558Z,3.01
2022-11-14T02:50:57.572Z,3.03
2022-11-14T02:51:56.551Z,3.08
2022-11-14T02:52:56.540Z,2.98
2022-11-14T02:53:57.412Z,2.98
2022-11-14T02:54:56.516Z,2.90
2022-11-14T02:55:56.546Z,2.97
2022-11-14T02:56:56.502Z,2.95
2022-11-14T02:57:56.474Z,2.87
2022-11-14T02:58:56.508Z,2.93
2022-11-14T02:59:56.505Z,2.97
2022-11-14T03:01:19.106Z,2.93
2022-11-14T03:01:58.536Z,2.92
2022-11-14T03:02:57.380Z,2.75
2022-11-14T03:03:56.435Z,2.97
2022-11-14T03:04:56.566Z,3.03
2022-11-14T03:05:57.376Z,2.89
2022-11-14T03:06:56.498Z,2.95
2022-11-14T03:07:56.447Z,2.92
2022-11-14T03:08:56.408Z,2.95
2022-11-14T03:09:56.397Z,2.95
2022-11-14T03:10:56.504Z,2.92
2022-11-14T03:11:56.419Z,3.00
2022-11-14T03:12:56.496Z,2.92
2022-11-14T03:13:56.415Z,2.86
2022-11-14T03:14:56.390Z,2.90
2022-11-14T03:15:56.389Z,2.95
2022-11-14T03:16:56.361Z,2.93
2022-11-14T03:17:56.377Z,2.86
2022-11-14T03:18:56.351Z,2.90
2022-11-14T03:19:56.316Z,2.90
2022-11-14T03:20:56.393Z,2.92
2022-11-14T03:21:56.313Z,2.95
2022-11-14T03:22:56.374Z,2.90
2022-11-14T03:23:56.311Z,3.01
2022-11-14T03:24:56.329Z,3.00
2022-11-14T03:25:56.272Z,2.89
2022-11-14T03:26:56.290Z,2.97
2022-11-14T03:27:56.303Z,2.97
2022-11-14T03:28:56.257Z,2.98
2022-11-14T03:29:56.265Z,2.97
2022-11-14T03:30:56.253Z,3.04
2022-11-14T03:31:56.282Z,3.07
2022-11-14T03:32:56.229Z,3.03
2022-11-14T03:33:56.227Z,3.00
2022-11-14T03:34:56.224Z,2.97
2022-11-14T03:35:56.201Z,2.87
2022-11-14T03:36:56.267Z,2.92
2022-11-14T03:37:56.721Z,2.97
2022-11-14T03:38:57.167Z,2.93
2022-11-14T03:39:56.189Z,2.87
2022-11-14T03:40:56.177Z,2.93
2022-11-14T03:41:56.162Z,3.04
2022-11-14T03:42:56.213Z,2.89
2022-11-14T03:43:56.170Z,3.00
2022-11-14T03:44:56.176Z,2.95
2022-11-14T03:45:56.125Z,3.01
2022-11-14T03:46:56.112Z,3.07
2022-11-14T04:02:55.114Z,2.72
2022-11-14T04:03:55.017Z,2.80
2022-11-14T04:04:54.996Z,2.75
2022-11-14T04:05:56.104Z,2.80
2022-11-14T04:06:56.203Z,2.75
2022-11-14T04:07:56.119Z,2.79
2022-11-14T04:08:56.101Z,2.77
2022-11-14T04:09:56.120Z,2.69
2022-11-14T04:10:56.091Z,2.67
2022-11-14T04:11:56.073Z,2.64
2022-11-14T04:12:56.065Z,2.67
2022-11-14T04:13:56.261Z,2.56
2022-11-14T04:14:56.052Z,2.62
2022-11-14T04:15:56.052Z,2.50
2022-11-14T04:16:56.063Z,2.57
2022-11-14T04:17:56.027Z,2.57
2022-11-14T04:18:56.126Z,2.68
2022-11-14T04:19:56.011Z,2.60
2022-11-14T04:20:56.023Z,2.57
2022-11-14T04:21:55.994Z,2.61
2022-11-14T04:22:55.987Z,2.67
2022-11-14T04:23:55.999Z,2.65
2022-11-14T04:24:55.999Z,2.64
2022-11-14T04:25:55.985Z,2.61
2022-11-14T04:26:55.961Z,2.62
2022-11-14T04:27:55.962Z,2.67
2022-11-14T04:28:55.939Z,2.65
2022-11-14T04:29:55.949Z,2.67
2022-11-14T04:30:55.921Z,2.64
2022-11-14T04:31:55.911Z,2.72
2022-11-14T04:32:56.908Z,2.71
2022-11-14T04:33:55.952Z,2.74
2022-11-14T04:34:56.001Z,2.77
2022-11-14T04:35:55.907Z,2.64
2022-11-14T04:36:55.882Z,2.62
2022-11-14T04:37:55.884Z,2.61
2022-11-14T04:38:56.728Z,2.67
2022-11-14T04:39:55.879Z,2.79
2022-11-14T04:40:55.909Z,2.71
2022-11-14T04:41:55.873Z,2.67
2022-11-14T04:42:55.845Z,2.68
2022-11-14T04:43:55.840Z,2.68
2022-11-14T04:44:55.890Z,2.72
2022-11-14T04:45:55.930Z,2.80
2022-11-14T04:46:55.861Z,2.79
2022-11-14T04:47:55.799Z,2.85
2022-11-14T04:48:55.794Z,2.82
2022-11-14T04:49:55.800Z,2.86
2022-11-14T04:50:55.932Z,2.95
2022-11-14T04:51:55.864Z,2.77
2022-11-14T04:52:55.808Z,2.83
2022-11-14T04:53:55.788Z,2.87
2022-11-14T04:54:55.745Z,2.85
2022-11-14T04:55:55.764Z,2.86
2022-11-14T04:56:55.758Z,2.87
2022-11-14T04:57:55.713Z,2.83
2022-11-14T04:58:55.717Z,2.86
2022-11-14T04:59:55.735Z,2.86
2022-11-14T05:00:55.810Z,2.83
2022-11-14T05:01:55.790Z,2.82
2022-11-14T05:02:56.728Z,2.67
2022-11-14T05:03:55.776Z,2.77
2022-11-14T05:04:55.668Z,2.87
2022-11-14T05:05:55.661Z,2.80
2022-11-14T05:06:55.760Z,2.90
2022-11-14T05:07:55.669Z,2.90
2022-11-14T05:08:55.664Z,2.90
2022-11-14T05:09:55.660Z,2.86
2022-11-14T05:10:55.620Z,2.95
2022-11-14T05:11:55.643Z,2.93
2022-11-14T05:12:55.679Z,2.95
2022-11-14T05:13:55.637Z,2.98
2022-11-14T05:14:55.596Z,2.93
2022-11-14T05:15:55.610Z,2.97
2022-11-14T05:16:55.573Z,3.03
2022-11-14T05:17:55.580Z,2.98
2022-11-14T05:18:55.624Z,3.01
2022-11-14T05:19:56.563Z,2.95
2022-11-14T05:20:55.585Z,3.04
2022-11-14T05:21:55.540Z,3.01
2022-11-14T05:22:55.545Z,3.01
2022-11-14T05:23:55.538Z,3.03
2022-11-14T05:24:55.524Z,2.95
2022-11-14T05:25:58.690Z,2.95
2022-11-14T05:26:56.517Z,2.95
2022-11-14T05:27:55.512Z,3.03
2022-11-14T05:28:55.484Z,2.98
2022-11-14T05:29:55.492Z,2.95
2022-11-14T05:30:55.519Z,3.05
2022-11-14T05:31:55.496Z,2.93
2022-11-14T05:32:56.252Z,2.90
2022-11-14T05:33:55.478Z,2.98
2022-11-14T05:34:55.495Z,3.03
2022-11-14T05:35:55.454Z,2.98
2022-11-14T05:36:55.440Z,2.93
2022-11-14T05:37:59.087Z,2.92
2022-11-14T05:38:56.428Z,2.95
2022-11-14T05:39:55.452Z,2.93
2022-11-14T05:40:55.408Z,2.82
2022-11-14T05:41:55.389Z,2.93
2022-11-14T05:42:55.503Z,2.80
2022-11-14T05:43:55.395Z,2.93
2022-11-14T05:44:56.376Z,2.93
2022-11-14T05:45:55.381Z,2.83
2022-11-14T05:46:55.373Z,2.86
2022-11-14T05:47:55.344Z,2.92
2022-11-14T05:48:55.340Z,2.90
2022-11-14T05:49:55.337Z,2.83
2022-11-14T05:50:56.370Z,2.83
2022-11-14T05:51:55.349Z,2.85
2022-11-14T05:52:55.306Z,2.85
2022-11-14T05:53:55.324Z,2.89
2022-11-14T05:54:55.294Z,2.92
2022-11-14T05:55:55.311Z,2.90
2022-11-14T05:56:55.266Z,2.80
2022-11-14T05:57:55.285Z,2.92
2022-11-14T05:58:55.289Z,2.74
2022-11-14T05:59:55.259Z,2.86
2022-11-14T06:00:55.290Z,2.83
2022-11-14T06:01:55.279Z,2.89
2022-11-14T06:02:55.212Z,2.86
2022-11-14T06:03:56.245Z,2.82
2022-11-14T06:04:55.210Z,2.85
2022-11-14T06:05:55.201Z,2.92
2022-11-14T06:06:55.260Z,2.92
2022-11-14T06:07:55.203Z,2.90
2022-11-14T06:08:55.192Z,2.89
2022-11-14T06:09:55.170Z,2.85
2022-11-14T06:10:56.241Z,2.89
2022-11-14T06:11:55.225Z,2.92
2022-11-14T06:12:55.181Z,2.93
2022-11-14T06:13:55.195Z,2.87
2022-11-14T06:14:55.181Z,2.86
2022-11-14T06:15:55.163Z,3.03
2022-11-14T06:16:55.145Z,2.98
2022-11-14T06:17:55.115Z,3.00
2022-11-14T06:18:55.116Z,2.97
2022-11-14T06:19:55.100Z,2.92
2022-11-14T06:20:55.144Z,2.89
2022-11-14T06:21:55.091Z,2.86
2022-11-14T06:22:55.092Z,2.87
2022-11-14T06:23:55.093Z,2.87
2022-11-14T06:24:55.068Z,2.85
2022-11-14T06:25:55.093Z,2.86
2022-11-14T06:26:55.046Z,2.87
2022-11-14T06:27:55.049Z,2.87
2022-11-14T06:28:55.064Z,2.90
2022-11-14T06:29:55.045Z,2.89
2022-11-14T06:30:55.130Z,2.95
2022-11-14T06:31:55.040Z,2.89
2022-11-14T06:32:55.052Z,2.85
2022-11-14T06:33:55.114Z,2.87
2022-11-14T06:34:55.032Z,2.87
2022-11-14T06:35:55.031Z,2.82
2022-11-14T06:36:55.017Z,2.86
2022-11-14T06:37:54.980Z,2.74
2022-11-14T06:38:54.982Z,2.71
2022-11-14T06:39:55.023Z,2.53
2022-11-14T06:40:54.971Z,2.38
2022-11-14T06:41:54.968Z,2.35
2022-11-14T06:42:54.941Z,2.26
2022-11-14T06:43:54.949Z,2.25
2022-11-14T06:44:54.970Z,2.18
2022-11-14T06:45:54.948Z,2.22
2022-11-14T06:46:54.885Z,2.15
2022-11-14T06:47:54.896Z,2.24
2022-11-14T06:48:54.887Z,2.15
2022-11-14T06:49:54.896Z,2.14
2022-11-14T06:50:54.881Z,2.22
2022-11-14T06:51:54.916Z,2.18
2022-11-14T06:52:54.891Z,2.10
2022-11-14T06:53:54.856Z,2.10
2022-11-14T06:54:54.841Z,2.02
2022-11-14T06:55:54.864Z,2.08
2022-11-14T06:56:54.847Z,1.97
2022-11-14T06:57:54.873Z,1.94
2022-11-14T06:58:54.803Z,1.88
2022-11-14T06:59:54.919Z,1.77
2022-11-14T07:00:54.804Z,1.84
2022-11-14T07:01:54.786Z,1.84
2022-11-14T07:02:54.911Z,1.88
2022-11-14T07:03:54.783Z,1.89
2022-11-14T07:04:54.754Z,1.91
2022-11-14T07:05:54.756Z,2.07
2022-11-14T07:06:54.822Z,2.07
2022-11-14T07:07:54.870Z,2.17
2022-11-14T07:08:54.723Z,2.11
2022-11-14T07:09:54.779Z,2.18
2022-11-14T07:10:54.714Z,2.26
2022-11-14T07:11:54.725Z,2.22
2022-11-14T07:12:54.741Z,2.26
2022-11-14T07:13:54.690Z,2.24
2022-11-14T07:14:54.700Z,2.43
2022-11-14T07:15:54.683Z,2.32
2022-11-14T07:16:54.690Z,2.43
2022-11-14T07:17:54.711Z,2.46
2022-11-14T07:18:54.666Z,2.90
2022-11-14T07:19:54.649Z,3.41
2022-11-14T07:20:54.625Z,3.86
2022-11-14T07:21:54.641Z,4.26
2022-11-14T07:22:54.634Z,4.40
2022-11-14T07:23:54.648Z,4.66
2022-11-14T07:24:54.639Z,4.75
2022-11-14T07:25:54.631Z,4.73
2022-11-14T07:26:54.602Z,4.70
2022-11-14T07:27:54.596Z,4.71
2022-11-14T07:29:00.719Z,5.10
2022-11-14T07:29:56.566Z,5.15
2022-11-14T07:30:54.584Z,5.05
2022-11-14T07:32:26.552Z,4.80
2022-11-14T07:32:54.620Z,4.58
2022-11-14T07:33:54.556Z,4.38
2022-11-14T07:34:59.224Z,4.06
2022-11-14T07:35:56.553Z,4.01
2022-11-14T07:36:54.546Z,3.87
2022-11-14T07:37:54.523Z,3.86
2022-11-14T07:38:54.526Z,3.74
2022-11-14T07:39:54.604Z,3.92
2022-11-14T07:40:59.333Z,3.92
2022-11-14T07:41:56.534Z,4.16
2022-11-14T07:42:54.483Z,4.41
2022-11-14T07:43:54.494Z,4.20
2022-11-14T07:44:54.464Z,3.60
2022-11-14T07:45:54.473Z,3.65
2022-11-14T07:46:54.464Z,3.55
2022-11-14T07:47:54.423Z,3.51
2022-11-14T07:48:54.452Z,3.65
2022-11-14T07:49:54.512Z,3.56
2022-11-14T07:50:54.429Z,3.53
2022-11-14T07:51:54.438Z,3.42
2022-11-14T07:52:54.420Z,3.66
2022-11-14T07:53:55.254Z,3.58
2022-11-14T07:54:54.380Z,3.53
2022-11-14T07:55:54.380Z,3.60
2022-11-14T07:56:54.435Z,3.60
2022-11-14T07:57:54.365Z,3.62
2022-11-14T07:58:54.374Z,3.65
2022-11-14T07:59:54.393Z,3.60
2022-11-14T08:00:54.376Z,3.63
2022-11-14T08:01:54.326Z,3.70
2022-11-14T08:02:54.346Z,3.63
2022-11-14T08:03:54.348Z,3.68
2022-11-14T08:04:54.345Z,3.69
2022-11-14T08:05:54.302Z,3.68
2022-11-14T08:06:54.446Z,3.70
2022-11-14T08:07:54.283Z,3.66
2022-11-14T08:08:54.276Z,3.63
2022-11-14T08:09:54.281Z,3.58
2022-11-14T08:10:54.274Z,3.60
2022-11-14T08:11:54.258Z,3.91
2022-11-14T08:13:10.805Z,4.05
2022-11-14T08:13:56.279Z,4.14
2022-11-14T08:15:26.190Z,4.05
2022-11-14T08:15:54.257Z,3.84
2022-11-14T08:16:54.247Z,3.77
2022-11-14T08:17:54.219Z,3.83
2022-11-14T08:18:54.239Z,3.96
2022-11-14T08:19:55.213Z,4.22
2022-11-14T08:20:54.201Z,4.28
2022-11-14T08:21:54.199Z,4.44
2022-11-14T08:22:54.184Z,4.82
2022-11-14T08:23:54.186Z,4.94
2022-11-14T08:24:54.204Z,5.25
2022-11-14T08:25:54.170Z,5.61
2022-11-14T08:26:54.169Z,5.99
2022-11-14T08:27:54.141Z,5.99
2022-11-14T08:28:54.131Z,6.24
2022-11-14T08:29:54.141Z,6.78
2022-11-14T08:30:54.105Z,7.47
2022-11-14T08:31:58.630Z,7.98
2022-11-14T08:32:56.088Z,8.79
2022-11-14T08:33:54.157Z,9.23
2022-11-14T08:34:54.187Z,9.16
2022-11-14T08:35:54.065Z,8.41
2022-11-14T08:36:54.085Z,8.44
2022-11-14T08:37:54.123Z,8.48
2022-11-14T08:38:58.908Z,8.18
2022-11-14T08:39:56.048Z,8.23
2022-11-14T08:40:54.052Z,8.81
2022-11-14T08:41:54.024Z,9.37
2022-11-14T08:42:54.096Z,9.80
2022-11-14T08:43:54.020Z,10.46
2022-11-14T08:44:54.027Z,11.00
2022-11-14T08:45:54.000Z,11.08
2022-11-14T08:46:53.980Z,11.88
2022-11-14T08:47:53.979Z,12.32
2022-11-14T08:48:54.009Z,12.43
2022-11-14T08:49:54.000Z,12.83
2022-11-14T08:50:53.945Z,13.22
2022-11-14T08:51:53.983Z,13.38
2022-11-14T08:52:53.935Z,13.44
2022-11-14T08:53:53.998Z,12.07
2022-11-14T08:54:53.918Z,10.78
2022-11-14T08:55:53.926Z,9.94
2022-11-14T08:56:53.931Z,9.87
2022-11-14T08:57:53.936Z,9.56
2022-11-14T08:58:54.655Z,9.73
2022-11-14T08:59:53.903Z,10.48
2022-11-14T09:00:53.928Z,11.37
2022-11-14T09:01:53.889Z,11.22
2022-11-14T09:02:53.931Z,10.40
2022-11-14T09:03:59.409Z,9.39
2022-11-14T09:04:56.850Z,9.28
2022-11-14T09:05:53.885Z,9.50
2022-11-14T09:06:53.927Z,9.86
2022-11-14T09:07:53.836Z,10.23
2022-11-14T09:08:53.839Z,9.99
2022-11-14T09:09:53.859Z,10.40
2022-11-14T09:10:53.858Z,11.40
2022-11-14T09:11:53.803Z,12.07
2022-11-14T09:12:53.791Z,12.31
2022-11-14T09:13:53.826Z,11.55
2022-11-14T09:14:53.803Z,11.25
2022-11-14T09:15:53.805Z,10.81
2022-11-14T09:16:53.780Z,10.38
2022-11-14T09:17:53.777Z,9.94
2022-11-14T09:18:53.749Z,9.74
2022-11-14T09:19:53.726Z,10.17
2022-11-14T09:20:54.951Z,10.12
2022-11-14T09:21:53.756Z,10.12
2022-11-14T09:22:53.739Z,10.12
2022-11-14T09:23:58.839Z,9.39
2022-11-14T09:24:56.311Z,9.29
2022-11-14T09:25:53.690Z,9.74
2022-11-14T09:26:57.059Z,10.46
2022-11-14T09:27:54.792Z,11.25
2022-11-14T09:28:53.691Z,11.45
2022-11-14T09:29:53.662Z,11.44
2022-11-14T09:30:53.662Z,11.52
2022-11-14T09:31:53.644Z,11.57
2022-11-14T09:32:53.634Z,11.30
2022-11-14T09:33:53.624Z,10.23
2022-11-14T09:34:53.622Z,10.26
2022-11-14T09:35:53.627Z,10.51
2022-11-14T09:36:53.610Z,10.34
2022-11-14T09:37:53.608Z,10.01
2022-11-14T09:38:53.602Z,10.25
2022-11-14T09:39:53.625Z,10.42
2022-11-14T09:40:53.635Z,10.76
2022-11-14T09:41:54.313Z,10.57
2022-11-14T09:42:53.568Z,10.35
2022-11-14T09:43:54.348Z,10.12
2022-11-14T09:44:53.555Z,10.30
2022-11-14T09:45:53.579Z,10.63
2022-11-14T09:46:53.550Z,10.84
2022-11-14T09:47:53.567Z,11.14
2022-11-14T09:48:53.537Z,11.32
2022-11-14T09:49:54.321Z,10.41
2022-11-14T09:50:53.526Z,10.15
2022-11-14T09:51:53.528Z,9.31
2022-11-14T09:52:53.526Z,9.46
2022-11-14T09:53:53.511Z,10.07
2022-11-14T09:54:53.552Z,10.46
2022-11-14T09:55:53.501Z,10.60
2022-11-14T09:56:53.517Z,10.59
2022-11-14T09:57:53.511Z,10.35
2022-11-14T09:58:53.521Z,10.37
2022-11-14T09:59:53.463Z,10.82
2022-11-14T10:00:53.437Z,10.79
2022-11-14T10:01:53.606Z,10.69
2022-11-14T10:02:53.440Z,10.69
2022-11-14T10:03:53.441Z,10.84
2022-11-14T10:04:53.904Z,11.22
2022-11-14T10:05:53.405Z,11.66
2022-11-14T10:06:53.411Z,11.57
2022-11-14T10:07:53.379Z,11.90
2022-11-14T10:08:53.386Z,11.73
2022-11-14T10:09:53.889Z,11.66
2022-11-14T10:10:53.365Z,11.78
2022-11-14T10:11:53.372Z,12.21
2022-11-14T10:12:53.858Z,12.50
2022-11-14T10:13:53.404Z,12.79
2022-11-14T10:14:53.354Z,12.45
2022-11-14T10:15:53.330Z,12.43
2022-11-14T10:16:53.428Z,12.57
2022-11-14T10:17:53.296Z,12.53
2022-11-14T10:18:53.307Z,11.69
2022-11-14T10:19:53.289Z,11.08
2022-11-14T10:20:53.298Z,10.94
2022-11-14T10:21:53.316Z,10.28
2022-11-14T10:22:56.180Z,9.86
2022-11-14T10:23:54.263Z,10.05
2022-11-14T10:24:53.273Z,10.72
2022-11-14T10:25:53.254Z,11.41
2022-11-14T10:26:53.281Z,11.52
2022-11-14T10:27:57.452Z,11.55
2022-11-14T10:28:55.210Z,11.55
2022-11-14T10:29:53.238Z,10.63
2022-11-14T10:30:53.192Z,10.41
2022-11-14T10:31:54.222Z,10.44
2022-11-14T10:32:53.216Z,10.76
2022-11-14T10:33:53.212Z,11.37
2022-11-14T10:34:53.218Z,11.68
2022-11-14T10:35:53.175Z,11.63
2022-11-14T10:36:53.148Z,11.66
2022-11-14T10:37:53.190Z,11.86
2022-11-14T10:38:53.140Z,12.25
2022-11-14T10:39:53.138Z,12.53
2022-11-14T10:40:53.116Z,12.57
2022-11-14T10:41:59.951Z,12.72
2022-11-14T10:42:55.219Z,12.73
2022-11-14T10:43:53.121Z,12.73
2022-11-14T10:44:53.105Z,12.72
2022-11-14T10:45:53.102Z,12.86
2022-11-14T10:46:53.091Z,11.80
2022-11-14T10:47:53.084Z,10.67
2022-11-14T10:48:56.267Z,10.75
2022-11-14T10:49:55.075Z,11.35
2022-11-14T10:50:53.057Z,11.68
2022-11-14T10:51:53.075Z,11.91
2022-11-14T10:52:53.051Z,12.02
2022-11-14T10:53:53.032Z,11.66
2022-11-14T10:54:53.030Z,11.12
2022-11-14T10:56:05.672Z,11.17
2022-11-14T10:56:55.008Z,11.47
2022-11-14T10:57:53.028Z,11.73
2022-11-14T10:58:52.994Z,11.66
2022-11-14T10:59:52.973Z,12.02
2022-11-14T11:00:53.012Z,12.12
2022-11-14T11:01:52.984Z,12.29
2022-11-14T11:02:52.952Z,12.28
2022-11-14T11:03:53.036Z,12.43
2022-11-14T11:04:52.999Z,12.75
2022-11-14T11:05:52.931Z,12.93
2022-11-14T11:06:52.985Z,13.00
2022-11-14T11:07:53.891Z,13.19
2022-11-14T11:08:52.969Z,13.09
2022-11-14T11:09:53.942Z,12.98
2022-11-14T11:10:52.937Z,13.08
2022-11-14T11:11:52.944Z,13.23
2022-11-14T11:12:52.882Z,13.23
2022-11-14T11:13:53.909Z,13.16
2022-11-14T11:14:52.882Z,13.33
2022-11-14T11:15:52.878Z,13.49
2022-11-14T11:16:52.854Z,13.04
2022-11-14T11:17:52.856Z,12.42
2022-11-14T11:18:52.861Z,11.81
2022-11-14T11:19:52.816Z,11.55
2022-11-14T11:20:53.898Z,11.52
2022-11-14T11:21:53.058Z,11.45
2022-11-14T11:22:52.831Z,11.59
2022-11-14T11:23:52.801Z,11.88
2022-11-14T11:24:52.829Z,11.69
2022-11-14T11:25:52.779Z,11.80
2022-11-14T11:26:52.844Z,11.60
2022-11-14T11:27:52.853Z,11.43
2022-11-14T11:28:52.792Z,11.55
2022-11-14T11:29:52.762Z,11.59
2022-11-14T11:30:54.447Z,12.02
2022-11-14T11:31:53.741Z,12.49
2022-11-14T11:32:52.765Z,12.91
2022-11-14T11:33:52.729Z,13.28
2022-11-14T11:34:52.732Z,13.23
2022-11-14T11:35:52.741Z,13.31
2022-11-14T11:36:52.730Z,12.87
2022-11-14T11:37:52.715Z,12.24
2022-11-14T11:38:52.741Z,12.43
2022-11-14T11:39:52.702Z,12.73
2022-11-14T11:40:52.665Z,12.70
2022-11-14T11:42:10.287Z,12.91
2022-11-14T11:43:36.625Z,12.78
2022-11-14T11:43:57.064Z,13.09
2022-11-14T11:44:53.684Z,13.19
2022-11-14T11:45:52.641Z,13.28
2022-11-14T11:46:52.670Z,13.60
2022-11-14T11:47:52.692Z,13.79
2022-11-14T11:48:52.615Z,13.46
2022-11-14T11:49:54.791Z,13.25
2022-11-14T11:50:53.629Z,13.16
2022-11-14T11:51:52.600Z,13.23
2022-11-14T11:52:52.587Z,13.41
2022-11-14T11:53:52.580Z,13.22
2022-11-14T11:54:52.586Z,12.87
2022-11-14T11:55:52.635Z,12.35
2022-11-14T11:56:52.594Z,12.28
2022-11-14T11:57:52.725Z,11.97
2022-11-14T11:58:52.584Z,11.91
2022-11-14T11:59:52.554Z,12.10
2022-11-14T12:00:52.606Z,12.50
2022-11-14T12:01:52.555Z,12.95
2022-11-14T12:02:52.685Z,13.19
2022-11-14T12:03:52.591Z,13.19
2022-11-14T12:04:52.513Z,12.87
2022-11-14T12:05:52.518Z,12.80
2022-11-14T12:06:52.550Z,12.97
2022-11-14T12:07:53.372Z,12.68
2022-11-14T12:08:52.479Z,12.67
2022-11-14T12:10:11.866Z,12.36
2022-11-14T12:10:54.509Z,12.21
2022-11-14T12:11:52.454Z,12.27
2022-11-14T12:12:52.462Z,12.40
2022-11-14T12:13:52.457Z,12.39
2022-11-14T12:14:52.423Z,12.50
2022-11-14T12:15:52.465Z,12.60
2022-11-14T12:16:52.449Z,12.79
2022-11-14T12:17:52.433Z,12.91
2022-11-14T12:18:52.412Z,12.91
2022-11-14T12:19:52.470Z,12.79
2022-11-14T12:20:52.491Z,12.65
2022-11-14T12:21:58.359Z,12.70
2022-11-14T12:22:54.389Z,12.55
2022-11-14T12:23:52.368Z,12.78
2022-11-14T12:24:52.380Z,13.09
2022-11-14T12:25:52.362Z,13.22
2022-11-14T12:26:52.344Z,13.08
2022-11-14T12:27:52.427Z,13.00
2022-11-14T12:28:52.343Z,13.01
2022-11-14T12:29:52.342Z,12.76
2022-11-14T12:30:52.328Z,12.64
2022-11-14T12:31:52.341Z,12.50
2022-11-14T12:33:24.220Z,12.18
2022-11-14T12:33:52.389Z,12.02
2022-11-14T12:35:24.438Z,11.73
2022-11-14T12:35:52.325Z,11.62
2022-11-14T12:36:52.327Z,11.66
2022-11-14T12:38:24.184Z,11.51
2022-11-14T12:38:52.421Z,11.55
2022-11-14T12:39:52.251Z,11.50
2022-11-14T12:40:52.281Z,11.48
2022-11-14T12:41:52.247Z,11.41
2022-11-14T12:42:52.226Z,11.30
2022-11-14T12:43:52.314Z,11.52
2022-11-14T12:45:24.136Z,11.55
2022-11-14T12:45:52.206Z,11.62
2022-11-14T12:46:52.209Z,11.50
2022-11-14T12:47:52.203Z,11.51
2022-11-14T12:48:52.207Z,11.52
2022-11-14T12:49:52.170Z,11.41
2022-11-14T12:50:52.193Z,11.54
2022-11-14T12:51:52.160Z,11.57
2022-11-14T12:52:52.183Z,11.95
2022-11-14T12:53:52.138Z,12.13
2022-11-14T12:54:52.163Z,12.17
2022-11-14T12:55:52.169Z,12.04
2022-11-14T12:56:54.206Z,12.07
2022-11-14T12:57:53.113Z,12.25
2022-11-14T12:58:52.158Z,12.24
2022-11-14T12:59:52.143Z,12.18
2022-11-14T13:00:52.167Z,11.99
2022-11-14T13:01:52.161Z,11.88
2022-11-14T13:02:52.098Z,11.91
2022-11-14T13:03:52.071Z,12.00
2022-11-14T13:04:52.051Z,12.12
2022-11-14T13:05:52.057Z,12.12
2022-11-14T13:06:52.100Z,12.18
2022-11-14T13:07:52.998Z,12.18
2022-11-14T13:08:52.053Z,12.24
2022-11-14T13:09:52.089Z,12.20
2022-11-14T13:10:52.030Z,12.29
2022-11-14T13:11:52.002Z,12.32
2022-11-14T13:12:51.984Z,12.36
2022-11-14T13:13:52.047Z,12.37
2022-11-14T13:14:51.990Z,12.47
2022-11-14T13:15:51.965Z,12.49
2022-11-14T13:16:52.001Z,12.49
2022-11-14T13:17:51.939Z,12.54
2022-11-14T13:18:51.962Z,12.61
2022-11-14T13:19:51.915Z,12.60
2022-11-14T13:20:51.958Z,12.53
2022-11-14T13:21:51.956Z,12.75
2022-11-14T13:22:51.935Z,12.75
2022-11-14T13:23:51.901Z,12.79
2022-11-14T13:24:51.881Z,12.91
2022-11-14T13:25:51.938Z,13.01
2022-11-14T13:26:51.911Z,12.94
2022-11-14T13:28:07.106Z,13.11
2022-11-14T13:28:53.913Z,13.12
2022-11-14T13:29:51.859Z,13.09
2022-11-14T13:30:51.941Z,13.13
2022-11-14T13:31:51.864Z,13.20
2022-11-14T13:32:51.836Z,13.11
2022-11-14T13:33:51.831Z,13.25
2022-11-14T13:34:51.807Z,13.25
2022-11-14T13:35:52.976Z,13.31
2022-11-14T13:36:51.824Z,13.38
2022-11-14T13:37:51.812Z,13.38
2022-11-14T13:38:51.782Z,13.41
2022-11-14T13:39:51.875Z,13.35